createdAt,value
2023-09-29T00:04:17.273Z,992
2023-09-29T00:09:17.237Z,992
2023-09-29T00:15:06.955Z,992
2023-09-29T00:20:17.286Z,992
2023-09-29T00:25:17.219Z,992
2023-09-29T00:30:17.249Z,992
2023-09-29T00:36:06.911Z,992
2023-09-29T00:41:07.041Z,992
2023-09-29T00:46:07.025Z,992
2023-09-29T00:51:17.218Z,992
2023-09-29T00:56:17.218Z,992
2023-09-29T01:01:17.243Z,992
2023-09-29T01:07:06.759Z,992
2023-09-29T01:12:07.007Z,992
2023-09-29T01:17:17.233Z,992
2023-09-29T01:22:17.272Z,992
2023-09-29T01:28:07.040Z,992
2023-09-29T01:33:07.192Z,992
2023-09-29T01:38:17.236Z,992
2023-09-29T01:43:17.300Z,992
2023-09-29T01:49:06.983Z,991
2023-09-29T01:59:06.814Z,991
2023-09-29T02:09:07.082Z,991
2023-09-29T02:14:17.273Z,991
2023-09-29T02:24:17.308Z,991
2023-09-29T02:30:06.755Z,991
2023-09-29T02:35:06.973Z,991
2023-09-29T02:40:07.009Z,991
2023-09-29T02:45:07.050Z,991
2023-09-29T02:50:17.356Z,991
2023-09-29T02:55:17.838Z,991
2023-09-29T03:01:07.019Z,991
2023-09-29T03:06:17.423Z,991
2023-09-29T03:12:06.844Z,991
2023-09-29T03:17:17.025Z,991
2023-09-29T03:22:17.173Z,991
2023-09-29T03:28:06.986Z,991
2023-09-29T03:33:17.115Z,991
2023-09-29T03:38:17.270Z,991
2023-09-29T03:44:07.027Z,991
2023-09-29T03:49:06.983Z,991
2023-09-29T03:54:17.322Z,991
2023-09-29T04:00:07.059Z,991
2023-09-29T04:05:07.167Z,991
2023-09-29T04:10:17.278Z,991
2023-09-29T04:15:17.501Z,991
2023-09-29T04:21:06.814Z,991
2023-09-29T04:26:06.881Z,991
2023-09-29T04:31:17.106Z,991
2023-09-29T04:36:17.128Z,991
2023-09-29T04:42:06.833Z,991
2023-09-29T04:47:06.847Z,991
2023-09-29T04:52:17.080Z,991
2023-09-29T04:57:17.112Z,991
2023-09-29T05:03:07.073Z,990
2023-09-29T05:08:07.484Z,990
2023-09-29T05:13:17.208Z,991
2023-09-29T05:19:06.939Z,990
2023-09-29T05:24:07.061Z,990
2023-09-29T05:29:06.977Z,990
2023-09-29T05:34:07.017Z,991
2023-09-29T05:39:17.290Z,991
2023-09-29T05:44:17.308Z,990
2023-09-29T05:50:15.608Z,990
2023-09-29T05:55:07.063Z,990
2023-09-29T06:00:07.198Z,990
2023-09-29T06:05:17.272Z,990
2023-09-29T06:10:17.316Z,990
2023-09-29T06:16:06.814Z,990
2023-09-29T06:21:07.431Z,990
2023-09-29T06:26:17.311Z,990
2023-09-29T06:32:07.062Z,990
2023-09-29T06:37:17.121Z,990
2023-09-29T06:42:17.302Z,990
2023-09-29T06:48:06.936Z,990
2023-09-29T06:53:07.098Z,990
2023-09-29T06:58:17.136Z,990
2023-09-29T07:03:17.434Z,990
2023-09-29T07:08:17.340Z,990
2023-09-29T07:14:06.858Z,990
2023-09-29T07:19:07.042Z,990
2023-09-29T07:24:07.110Z,990
2023-09-29T07:29:17.431Z,990
2023-09-29T07:35:07.039Z,990
2023-09-29T07:40:07.067Z,990
2023-09-29T07:45:17.197Z,990
2023-09-29T07:50:17.339Z,990
2023-09-29T07:55:17.345Z,990
2023-09-29T08:00:17.363Z,990
2023-09-29T08:05:23.675Z,990
2023-09-29T08:11:07.074Z,990
2023-09-29T08:16:17.172Z,990
2023-09-29T08:21:17.457Z,990
2023-09-29T08:27:06.937Z,990
2023-09-29T08:32:07.092Z,990
2023-09-29T08:37:17.152Z,990
2023-09-29T08:42:17.359Z,990
2023-09-29T08:47:17.348Z,990
2023-09-29T08:53:07.064Z,990
2023-09-29T09:03:17.475Z,990
2023-09-29T09:09:07.050Z,990
2023-09-29T09:14:07.105Z,990
2023-09-29T09:19:17.446Z,990
2023-09-29T09:25:06.900Z,991
2023-09-29T09:30:07.158Z,991
2023-09-29T09:35:17.131Z,990
2023-09-29T09:40:17.375Z,990
2023-09-29T09:45:17.550Z,990
2023-09-29T09:51:07.107Z,990
2023-09-29T09:56:07.093Z,990
2023-09-29T10:01:17.386Z,991
2023-09-29T10:06:17.438Z,991
2023-09-29T10:12:07.176Z,991
2023-09-29T10:17:17.422Z,991
2023-09-29T10:22:17.533Z,990
2023-09-29T10:28:06.906Z,990
2023-09-29T10:33:07.499Z,990
2023-09-29T10:38:07.416Z,990
2023-09-29T10:43:17.203Z,990
2023-09-29T10:49:07.114Z,990
2023-09-29T10:59:17.236Z,991
2023-09-29T11:05:06.925Z,991
2023-09-29T11:10:06.932Z,991
2023-09-29T11:15:17.244Z,991
2023-09-29T11:21:06.988Z,991
2023-09-29T11:26:07.241Z,991
2023-09-29T11:31:17.337Z,991
2023-09-29T11:36:17.272Z,991
2023-09-29T11:41:17.256Z,991
2023-09-29T11:46:17.492Z,991
2023-09-29T11:52:07.197Z,991
2023-09-29T11:57:17.309Z,991
2023-09-29T12:03:07.645Z,991
2023-09-29T12:08:17.472Z,992
2023-09-29T12:13:17.447Z,992
2023-09-29T12:19:07.130Z,991
2023-09-29T12:29:07.206Z,992
2023-09-29T12:34:17.454Z,992
2023-09-29T12:39:17.524Z,992
2023-09-29T12:45:07.291Z,992
2023-09-29T12:50:17.449Z,992
2023-09-29T12:55:17.490Z,992
2023-09-29T13:00:17.662Z,992
2023-09-29T13:06:07.376Z,992
2023-09-29T13:11:17.468Z,992
2023-09-29T13:17:06.968Z,992
2023-09-29T13:22:07.173Z,992
2023-09-29T13:27:07.269Z,992
2023-09-29T13:32:07.446Z,992
2023-09-29T13:37:17.958Z,992
2023-09-29T13:43:07.213Z,992
2023-09-29T13:53:17.478Z,992
2023-09-29T14:04:07.316Z,992
2023-09-29T14:09:18.343Z,993
2023-09-29T14:14:17.515Z,993
2023-09-29T14:19:17.873Z,993
2023-09-29T14:24:27.891Z,993
2023-09-29T14:30:07.286Z,993
2023-09-29T14:35:17.487Z,993
2023-09-29T14:41:07.023Z,993
2023-09-29T14:46:17.972Z,993
2023-09-29T14:52:07.120Z,993
2023-09-29T14:57:07.266Z,993
2023-09-29T15:02:17.510Z,993
2023-09-29T15:07:17.520Z,993
2023-09-29T15:13:07.213Z,993
2023-09-29T15:18:17.310Z,993
2023-09-29T15:23:17.498Z,993
2023-09-29T15:28:17.560Z,993
2023-09-29T15:34:07.258Z,993
2023-09-29T15:39:07.339Z,993
2023-09-29T15:44:07.578Z,993
2023-09-29T15:49:17.542Z,993
2023-09-29T15:54:17.544Z,993
2023-09-29T16:00:07.304Z,993
2023-09-29T16:05:17.279Z,993
2023-09-29T16:10:19.006Z,993
2023-09-29T16:15:17.360Z,993
2023-09-29T16:20:17.372Z,993
2023-09-29T16:25:17.702Z,993
2023-09-29T16:31:07.436Z,994
2023-09-29T16:36:20.192Z,994
2023-09-29T16:41:17.576Z,994
2023-09-29T16:46:17.748Z,994
2023-09-29T16:52:07.273Z,994
2023-09-29T16:57:07.157Z,994
2023-09-29T17:02:17.329Z,994
2023-09-29T17:08:07.213Z,994
2023-09-29T17:13:17.349Z,995
2023-09-29T17:19:07.035Z,995
2023-09-29T17:24:07.102Z,995
2023-09-29T17:29:17.310Z,995
2023-09-29T17:34:17.335Z,995
2023-09-29T17:39:17.386Z,995
2023-09-29T17:45:08.640Z,995
2023-09-29T17:50:17.431Z,995
2023-09-29T17:56:07.269Z,996
2023-09-29T18:01:07.265Z,996
2023-09-29T18:06:07.286Z,996
2023-09-29T18:11:17.600Z,996
2023-09-29T18:16:17.551Z,996
2023-09-29T18:21:17.588Z,996
2023-09-29T18:26:25.666Z,996
2023-09-29T18:32:07.271Z,997
2023-09-29T18:37:17.512Z,997
2023-09-29T18:42:17.658Z,997
2023-09-29T18:48:07.410Z,997
2023-09-29T18:53:17.341Z,997
2023-09-29T18:58:17.525Z,997
2023-09-29T19:03:17.631Z,997
2023-09-29T19:08:17.614Z,997
2023-09-29T19:14:08.480Z,997
2023-09-29T19:19:17.544Z,997
2023-09-29T19:24:17.637Z,997
2023-09-29T19:35:07.341Z,997
2023-09-29T19:40:17.536Z,997
2023-09-29T19:45:17.672Z,997
2023-09-29T19:51:07.300Z,997
2023-09-29T19:56:07.285Z,997
2023-09-29T20:01:17.547Z,997
2023-09-29T20:06:17.717Z,998
2023-09-29T20:12:07.351Z,998
2023-09-29T20:17:17.675Z,998
2023-09-29T20:23:07.302Z,998
2023-09-29T20:34:07.280Z,998
2023-09-29T20:39:17.726Z,998
2023-09-29T20:45:07.348Z,998
2023-09-29T20:50:17.776Z,998
2023-09-29T20:55:17.585Z,998
2023-09-29T21:01:07.335Z,998
2023-09-29T21:06:07.412Z,998
2023-09-29T21:11:17.564Z,998
2023-09-29T21:17:07.311Z,998
2023-09-29T21:22:17.378Z,998
2023-09-29T21:27:17.599Z,999
2023-09-29T21:33:07.378Z,999
2023-09-29T21:38:07.320Z,999
2023-09-29T21:43:17.602Z,999
2023-09-29T21:49:07.335Z,999
2023-09-29T21:54:17.424Z,999
2023-09-29T21:59:26.611Z,999
2023-09-29T22:05:07.283Z,999
2023-09-29T22:10:07.347Z,999
2023-09-29T22:15:17.626Z,999
2023-09-29T22:20:17.609Z,999
2023-09-29T22:26:07.324Z,999
2023-09-29T22:31:17.597Z,999
2023-09-29T22:36:17.654Z,999
2023-09-29T22:41:17.705Z,999
2023-09-29T22:47:07.510Z,999
2023-09-29T22:52:17.566Z,999
2023-09-29T22:57:17.629Z,999
2023-09-29T23:03:07.246Z,999
2023-09-29T23:08:07.147Z,999
2023-09-29T23:13:17.359Z,999
2023-09-29T23:18:17.421Z,999
2023-09-29T23:29:17.416Z,999
2023-09-29T23:35:07.158Z,999
2023-09-29T23:40:17.487Z,999
2023-09-29T23:46:07.167Z,999
2023-09-29T23:51:07.213Z,999
2023-09-29T23:56:17.384Z,999
